This demonstration page uses our WeatherBlox Daily Observations layout. Learn more.

Left ArrowRight Arrow

38.88101, -77.10428

Hourly Observations for March 19, 2019

Temp ( °F °C ) Dew Point ( °F °C ) Humidity (%) Winds ( mph kmh ) Pressure ( in mb ) Visibility ( mi km ) Precip ( " mm )
12:52 am 00:52 Partly Cloudy 41 5 29 -1.7 62 62 Calm 30.4 1029 10 16.0934 0 0
1:52 am 01:52 Mostly Clear 39 3.9 19 -7.2 45 45 N 7 11 30.4 1030 10 16.0934 0 0
2:52 am 02:52 Mostly Clear 39 3.9 18 -7.8 43 43 NNW 8 13 30.39 1029 10 16.0934 0 0
3:52 am 03:52 Mostly Clear 38 3.3 18 -7.8 44 44 NNW 8 13 30.4 1029 10 16.0934 0 0
4:52 am 04:52 Clear 38 3.3 17 -8.3 43 43 NNW 7 11 30.4 1029 10 16.0934 0 0
5:52 am 05:52 Clear 37 2.8 16 -8.9 42 42 NNW 6 9 30.42 1030 10 16.0934 0 0
6:52 am 06:52 Mostly Clear 36 2.2 20 -6.7 52 52 N 6 9 30.44 1031 10 16.0934 0 0
7:52 am 07:52 Mostly Sunny 37 2.8 19 -7.2 48 48 N 5 7 30.45 1031 10 16.0934 0 0
8:52 am 08:52 Sunny 42 5.6 21 -6.1 43 43 NE 6 9 30.47 1032 10 16.0934 0 0
9:52 am 09:52 Sunny 44 6.7 19 -7.2 37 37 ENE 7 11 30.48 1032 10 16.0934 0 0
10:52 am 10:52 Sunny 46 7.8 14 -10 27 27 Calm 30.49 1033 10 16.0934 0 0
11:52 am 11:52 Mostly Sunny 47 8.3 14 -10 26 26 SE 3 6 30.49 1032 10 16.0934 0 0
12:52 pm 12:52 Mostly Sunny 49 9.4 15 -9.4 26 26 SE 7 11 30.47 1032 10 16.0934 0 0
1:52 pm 13:52 Mostly Sunny 51 10.6 15 -9.4 24 24 W 7 11 30.45 1031 10 16.0934 0 0
2:52 pm 14:52 Partly Cloudy 51 10.6 15 -9.4 24 24 Calm 30.43 1031 10 16.0934 0 0
3:52 pm 15:52 Partly Cloudy 53 11.7 16 -8.9 23 23 NNE 7 11 30.41 1030 10 16.0934 0 0
4:52 pm 16:52 Mostly Sunny 53 11.7 15 -9.4 22 22 N 7 11 30.4 1029 10 16.0934 0 0
5:52 pm 17:52 Mostly Sunny 52 11.1 17 -8.3 25 25 N 9 15 30.39 1029 10 16.0934 0 0
6:52 pm 18:52 Mostly Sunny 50 10 17 -8.3 27 27 N 7 11 30.4 1029 10 16.0934 0 0
7:52 pm 19:52 Mostly Clear 47 8.3 20 -6.7 34 34 E 9 15 30.4 1030 10 16.0934 0 0
8:52 pm 20:52 Clear 46 7.8 19 -7.2 34 34 SE 9 15 30.41 1030 10 16.0934 0 0
9:52 pm 21:52 Clear 43 6.1 19 -7.2 38 38 S 6 9 30.42 1030 10 16.0934 0 0
10:52 pm 22:52 Clear 45 7.2 15 -9.4 30 30 ESE 3 6 30.42 1030 10 16.0934 0 0
11:52 pm 23:52 Clear 43 6.1 17 -8.3 35 35 S 5 7 30.41 1030 10 16.0934 0 0

Powered by AerisWeather